Bismarck, ND

12:47 PM CST on February 06, 2016 (GMT -0600)
Pacific Avenue Bismarck | | Change Station
CLOSE
Current Station
Personal Weather Station
Location: Bismarck, ND
Elevation: 1722 ft
Nearby Weather Stations
Active Advisory: High Wind Warning

Elev 1722 ft 46.83 °N, 100.75 °W | Updated 12 minutes ago

Overcast
Overcast
43.2 °F
Feels Like 43 °F
N
1.1
Wind Variable Wind from WNW

Today
High -- | Low -- °F
--% Chance of Precip.
Yesterday
High -- | Low -- °F
Precip. -- in
Pressure 29.82 in
Visibility 10.0 miles
Clouds Mostly Cloudy 7000 ft
Overcast 9000 ft
Windchill 43 °F
Dew Point 33 °F
Humidity 67%
Rainfall 0.00 in
Snow Depth Not available.
8:01 AM 5:53 PM
Waning Crescent, 4% visible
METAR KBIS 061752Z 23005KT 10SM BKN070 OVC090 08/M03 A2977 RMK AO2 SLP097 T00831028 10083 21006 58015
Pressure 29.82 in
Visibility 10.0 miles
Clouds Mostly Cloudy 7000 ft
Overcast 9000 ft
Windchill 43 °F
Dew Point 33 °F
Humidity 67%
Rainfall 0.00 in
Snow Depth Not available.
8:01 AM 5:53 PM
Waning Crescent, 4% visible
METAR KBIS 061752Z 23005KT 10SM BKN070 OVC090 08/M03 A2977 RMK AO2 SLP097 T00831028 10083 21006 58015

10-Day Weather Forecast

Almanac

Astronomy

Feb. 06, 2016 Rise Set
Actual Time
Civil Twilight
Nautical Twilight
Astronomical Twilight
Moon
Length of Visible Light
Length of Day
Tomorrow will be .
, % of the Moon is Illuminated

Today's Extremes

State Highs State Lows

Community

WunderPhotos

Upload Photos

1,891,033 photos uploaded!

WunderBlog® & News

Nearby

Air Quality

  Air Quality AQ Index Pollutant
Not available.

Snow Depth

Station Depth Elevation

Earthquake Activity

City Distance Mag. Time & Date
Minimum magnitude displayed is 2.5.

Coastal Water Temperatures

Place Temperature

Stations

Nearby Weather Stations

Station Location Temp. Windchill Dew Point Humidity Wind Precip. Elev Updated Type
                   

Watches & Warnings

High Wind Warning
Issued: 9:37 AM CST Feb. 6, 2016 – National Weather Service

... High Wind Warning remains in effect from 6 am Sunday to 6 am
CST Monday...

* timing... early Sunday morning through late Sunday night.

* Winds... northwest winds gusting up to 65 mph.

* Impacts... travel may become hazardous over central North
Dakota. Snow and blowing snow may reduce visibilities on
Sunday.

Precautionary/preparedness actions...

A High Wind Warning means a hazardous high wind event is expected
or occurring. Sustained wind speeds of at least 40 mph or gusts
of 58 mph or more can lead to property damage.